Time;durP1;ratioP1;P1;durP2;ratioP2;P2;SDS_P1;SDS_P2;PMS_P1;PMS_P2;Temp;Humidity;BMP_temperature;BMP_pressure;BME280_temperature;BME280_humidity;BME280_pressure;Samples;Min_cycle;Max_cycle;Signal;HPM_P1;HPM_P2
2021/07/19 00:01:34;;;;;;;4.45;2.42;;;22.60;62.70;;;;;;5009626;28;20034;-88
2021/07/19 00:04:00;;;;;;;4.32;2.50;;;22.50;62.80;;;;;;5012970;28;20384;-88
2021/07/19 00:06:26;;;;;;;5.05;2.60;;;22.50;62.40;;;;;;5012623;28;20025;-89
2021/07/19 00:08:52;;;;;;;4.00;2.60;;;22.50;62.30;;;;;;5012466;28;20414;-89
2021/07/19 00:11:18;;;;;;;3.38;2.40;;;22.50;62.00;;;;;;5012516;28;20026;-88
2021/07/19 00:13:44;;;;;;;3.22;2.70;;;22.50;62.30;;;;;;5012240;28;20061;-89
2021/07/19 00:16:10;;;;;;;5.03;2.97;;;22.50;64.00;;;;;;5013578;28;20033;-89
2021/07/19 00:18:36;;;;;;;4.93;2.70;;;22.50;63.00;;;;;;5024998;28;20029;-88
2021/07/19 00:21:02;;;;;;;3.90;2.83;;;22.40;63.00;;;;;;5012648;28;20120;-88
2021/07/19 00:23:28;;;;;;;2.97;2.63;;;22.40;62.60;;;;;;5011943;28;20037;-89
2021/07/19 00:25:54;;;;;;;2.83;2.53;;;22.40;64.10;;;;;;5018079;28;20045;-89
2021/07/19 00:28:20;;;;;;;3.75;2.65;;;22.30;63.70;;;;;;5012144;28;20564;-88
2021/07/19 00:30:46;;;;;;;3.53;2.72;;;22.30;63.40;;;;;;5012213;28;20045;-85
2021/07/19 00:33:13;;;;;;;3.03;2.20;;;22.20;63.40;;;;;;5015145;28;20482;-85
2021/07/19 00:35:38;;;;;;;3.35;2.42;;;22.20;63.30;;;;;;5016529;28;20025;-85
2021/07/19 00:38:04;;;;;;;3.40;2.50;;;22.20;63.40;;;;;;5010473;28;20034;-85
2021/07/19 00:40:31;;;;;;;2.80;2.50;;;22.10;63.40;;;;;;5010431;28;20026;-86
2021/07/19 00:42:58;;;;;;;3.67;2.58;;;22.00;63.80;;;;;;5013768;28;20046;-84
2021/07/19 00:45:27;;;;;;;3.50;2.38;;;22.00;64.90;;;;;;5008493;28;20022;-85
2021/07/19 00:47:55;;;;;;;3.47;2.50;;;21.90;63.50;;;;;;5010161;28;20478;-85
2021/07/19 00:50:21;;;;;;;3.95;2.53;;;21.90;64.10;;;;;;5012750;28;20482;-85
2021/07/19 00:52:48;;;;;;;3.55;2.70;;;21.90;64.20;;;;;;5010002;28;20034;-85
2021/07/19 00:55:15;;;;;;;4.03;2.60;;;21.90;64.80;;;;;;5010377;28;20033;-87
2021/07/19 00:57:47;;;;;;;3.33;2.50;;;21.90;65.10;;;;;;5011615;28;20108;-87
2021/07/19 01:00:13;;;;;;;4.20;3.10;;;21.80;63.80;;;;;;5009512;28;20029;-87
2021/07/19 01:02:46;;;;;;;3.78;2.70;;;21.80;64.10;;;;;;5009462;28;20120;-87
2021/07/19 01:05:11;;;;;;;4.15;2.60;;;21.80;64.90;;;;;;5008661;28;20032;-87
2021/07/19 01:07:39;;;;;;;3.97;2.33;;;21.70;64.30;;;;;;5009611;28;20030;-87
2021/07/19 01:10:13;;;;;;;5.35;3.08;;;21.80;65.60;;;;;;5010036;28;20408;-87
2021/07/19 01:12:53;;;;;;;4.05;2.40;;;21.70;65.00;;;;;;5011520;28;20084;-87
2021/07/19 01:15:21;;;;;;;3.03;2.53;;;21.70;65.80;;;;;;5005630;28;20018;-87
2021/07/19 01:17:47;;;;;;;3.80;2.50;;;21.70;65.10;;;;;;5009469;28;20097;-86
2021/07/19 01:20:13;;;;;;;6.63;2.95;;;21.70;65.70;;;;;;5011106;28;20392;-86
2021/07/19 01:23:16;;;;;;;4.05;2.45;;;21.60;65.50;;;;;;5009697;28;20058;-86
2021/07/19 01:25:45;;;;;;;3.60;2.60;;;21.60;64.40;;;;;;4995885;28;20030;-85
2021/07/19 01:28:49;;;;;;;4.70;2.50;;;21.50;65.00;;;;;;5010227;28;20084;-86
2021/07/19 01:31:17;;;;;;;4.65;2.50;;;21.40;65.20;;;;;;5009438;28;20498;-86
2021/07/19 01:33:47;;;;;;;3.30;2.45;;;21.40;66.10;;;;;;5011614;28;20113;-86
2021/07/19 01:36:18;;;;;;;3.03;2.67;;;21.30;65.20;;;;;;5008196;28;20026;-86
2021/07/19 01:38:44;;;;;;;3.58;2.90;;;21.20;65.40;;;;;;5009553;28;20120;-86
2021/07/19 01:41:12;;;;;;;3.10;2.55;;;21.20;65.40;;;;;;5010901;28;20506;-86
2021/07/19 01:43:39;;;;;;;4.90;2.88;;;21.20;66.80;;;;;;5007174;28;20041;-86
2021/07/19 01:46:05;;;;;;;4.07;2.45;;;21.20;66.40;;;;;;5012063;28;20026;-87
2021/07/19 01:48:33;;;;;;;3.42;2.83;;;21.20;67.00;;;;;;5010657;28;20109;-90
2021/07/19 01:51:00;;;;;;;3.60;3.10;;;21.20;67.00;;;;;;5008576;28;20014;-89
2021/07/19 01:53:29;;;;;;;3.72;3.03;;;21.20;67.00;;;;;;5010194;28;20069;-90
2021/07/19 01:55:57;;;;;;;3.72;2.90;;;21.20;66.50;;;;;;5005841;28;20105;-90
2021/07/19 01:58:23;;;;;;;4.25;2.67;;;21.10;66.70;;;;;;5010094;28;20025;-90
2021/07/19 02:00:50;;;;;;;2.70;2.50;;;21.10;67.40;;;;;;5012999;28;20030;-89
2021/07/19 02:03:15;;;;;;;3.08;2.63;;;21.10;67.10;;;;;;5010956;28;20026;-89
2021/07/19 02:05:43;;;;;;;3.90;2.45;;;21.10;67.30;;;;;;5008181;28;20534;-90
2021/07/19 02:08:14;;;;;;;3.75;2.90;;;21.00;67.00;;;;;;5010888;28;20026;-89
2021/07/19 02:10:40;;;;;;;3.30;2.53;;;20.90;67.30;;;;;;4996632;28;20109;-90
2021/07/19 02:13:06;;;;;;;3.67;2.70;;;20.90;68.10;;;;;;5009913;28;20582;-90
2021/07/19 02:15:33;;;;;;;3.97;2.88;;;21.00;67.90;;;;;;5010423;28;20034;-90
2021/07/19 02:18:02;;;;;;;6.43;3.20;;;20.90;68.20;;;;;;5009024;28;20578;-86
2021/07/19 02:20:28;;;;;;;5.05;2.70;;;20.90;68.10;;;;;;5008832;28;20113;-87
2021/07/19 02:22:56;;;;;;;4.13;2.72;;;20.80;68.00;;;;;;5008718;28;20121;-85
2021/07/19 02:25:22;;;;;;;4.68;2.97;;;20.80;68.30;;;;;;5010298;28;20426;-85
2021/07/19 02:27:50;;;;;;;4.38;2.70;;;20.80;67.30;;;;;;5010765;28;20101;-85
2021/07/19 02:30:18;;;;;;;4.20;2.67;;;20.70;69.00;;;;;;5008432;28;20128;-85
2021/07/19 02:32:50;;;;;;;5.45;3.10;;;20.70;68.30;;;;;;5008403;28;20030;-86
2021/07/19 02:35:16;;;;;;;3.92;3.10;;;20.70;67.40;;;;;;5007517;28;20506;-86
2021/07/19 02:37:44;;;;;;;4.68;2.63;;;20.70;68.30;;;;;;5007468;28;20062;-86
2021/07/19 02:40:12;;;;;;;4.05;2.80;;;20.70;68.30;;;;;;5011016;28;20025;-85
2021/07/19 02:42:48;;;;;;;3.92;3.00;;;20.70;69.00;;;;;;5009348;28;20121;-86
2021/07/19 02:45:15;;;;;;;3.42;3.05;;;20.70;68.60;;;;;;5007483;28;20133;-85
2021/07/19 02:47:45;;;;;;;3.80;2.90;;;20.70;69.70;;;;;;5008630;28;20022;-86
2021/07/19 02:50:13;;;;;;;4.55;3.05;;;20.70;68.80;;;;;;5008628;28;20079;-86
2021/07/19 02:52:39;;;;;;;3.00;2.58;;;20.70;69.20;;;;;;5007532;28;20038;-87
2021/07/19 02:55:06;;;;;;;3.90;3.10;;;20.70;70.00;;;;;;5010017;28;20127;-88
2021/07/19 02:57:37;;;;;;;3.45;2.78;;;20.60;69.30;;;;;;5010304;28;20070;-86
2021/07/19 03:00:16;;;;;;;5.07;2.90;;;20.60;69.40;;;;;;5007637;28;20456;-87
2021/07/19 03:02:47;;;;;;;3.30;3.00;;;20.60;69.80;;;;;;5006753;28;20081;-88
2021/07/19 03:05:17;;;;;;;4.60;3.13;;;20.50;69.40;;;;;;5009150;28;20026;-88
2021/07/19 03:07:47;;;;;;;4.43;3.50;;;20.50;69.80;;;;;;5008926;28;20037;-88
2021/07/19 03:10:15;;;;;;;4.80;2.67;;;20.50;69.80;;;;;;5007734;28;20038;-87
2021/07/19 03:12:42;;;;;;;5.45;3.30;;;20.50;71.20;;;;;;5009323;28;20030;-88
2021/07/19 03:15:09;;;;;;;4.20;2.80;;;20.40;71.80;;;;;;5008147;28;20030;-89
2021/07/19 03:17:38;;;;;;;3.72;2.88;;;20.40;70.70;;;;;;5007596;28;20029;-88
2021/07/19 03:20:06;;;;;;;3.75;2.90;;;20.40;70.80;;;;;;5007378;28;20022;-86
2021/07/19 03:22:37;;;;;;;4.25;3.00;;;20.40;71.30;;;;;;5007593;28;20034;-87
2021/07/19 03:25:04;;;;;;;3.30;2.58;;;20.40;70.00;;;;;;5012024;28;20037;-86
2021/07/19 03:27:31;;;;;;;4.30;2.63;;;20.30;71.10;;;;;;5011697;28;20054;-87
2021/07/19 03:29:58;;;;;;;3.25;2.50;;;20.40;71.00;;;;;;5010866;28;20092;-87
2021/07/19 03:32:24;;;;;;;3.72;2.70;;;20.40;71.10;;;;;;5011014;28;20479;-88
2021/07/19 03:34:51;;;;;;;3.20;2.90;;;20.40;70.60;;;;;;5010111;28;20023;-87
2021/07/19 03:37:18;;;;;;;3.90;2.97;;;20.30;71.10;;;;;;5012899;28;20391;-88
2021/07/19 03:39:44;;;;;;;3.92;3.17;;;20.30;72.70;;;;;;5012654;28;20026;-88
2021/07/19 03:42:12;;;;;;;4.00;3.17;;;20.30;71.90;;;;;;5011992;28;20052;-88
2021/07/19 03:44:40;;;;;;;4.50;3.17;;;20.20;73.80;;;;;;5010780;28;20113;-88
2021/07/19 03:47:09;;;;;;;6.07;3.65;;;20.20;74.70;;;;;;5012034;28;20041;-87
2021/07/19 03:49:36;;;;;;;3.65;3.05;;;20.10;72.60;;;;;;5009484;28;20578;-88
2021/07/19 03:52:02;;;;;;;4.10;3.30;;;20.10;74.80;;;;;;5013949;28;20065;-88
2021/07/19 03:54:28;;;;;;;4.63;3.08;;;20.10;74.50;;;;;;5009930;28;20041;-90
2021/07/19 03:56:54;;;;;;;3.67;3.05;;;20.10;75.20;;;;;;5006425;28;20026;-89
2021/07/19 03:59:23;;;;;;;3.88;3.00;;;20.10;73.20;;;;;;5010961;28;20036;-88
2021/07/19 04:01:51;;;;;;;3.97;2.90;;;20.00;73.70;;;;;;5009083;28;20034;-84
2021/07/19 04:04:29;;;;;;;3.88;3.10;;;20.00;73.10;;;;;;5011835;28;20068;-85
2021/07/19 04:06:56;;;;;;;5.85;3.35;;;20.00;73.40;;;;;;5011583;28;20080;-85
2021/07/19 04:09:22;;;;;;;5.35;3.35;;;20.00;72.70;;;;;;5009612;28;20035;-85
2021/07/19 04:11:48;;;;;;;3.75;2.90;;;20.00;73.50;;;;;;5008304;28;20556;-86
2021/07/19 04:14:14;;;;;;;4.43;2.97;;;20.00;73.90;;;;;;5008158;28;20033;-86
2021/07/19 04:16:39;;;;;;;5.70;3.10;;;20.00;74.00;;;;;;5008952;28;20018;-85
2021/07/19 04:19:05;;;;;;;4.80;2.80;;;20.00;74.60;;;;;;5012171;28;20044;-85
2021/07/19 04:21:33;;;;;;;3.63;3.05;;;19.90;75.80;;;;;;5010074;28;20026;-85
2021/07/19 04:23:59;;;;;;;3.42;2.80;;;19.90;74.80;;;;;;5009140;28;20576;-85
2021/07/19 04:26:26;;;;;;;3.67;3.28;;;19.90;73.40;;;;;;5010635;28;20508;-87
2021/07/19 04:28:53;;;;;;;5.70;3.67;;;19.90;73.40;;;;;;5009016;28;20125;-86
2021/07/19 04:31:19;;;;;;;4.20;3.05;;;19.90;73.50;;;;;;5010819;28;20030;-87
2021/07/19 04:33:49;;;;;;;4.63;3.15;;;19.90;72.80;;;;;;5009802;28;20033;-86
2021/07/19 04:36:17;;;;;;;4.70;3.38;;;19.80;73.50;;;;;;5007499;28;20455;-89
2021/07/19 04:38:43;;;;;;;4.57;3.00;;;19.80;73.30;;;;;;5009534;28;20037;-89
2021/07/19 04:41:09;;;;;;;6.20;3.28;;;19.80;73.90;;;;;;5008719;28;20030;-89
2021/07/19 04:43:35;;;;;;;4.85;3.55;;;19.80;74.00;;;;;;5011239;28;20036;-90
2021/07/19 04:46:00;;;;;;;3.90;3.20;;;19.80;72.90;;;;;;5012667;28;20030;-88
2021/07/19 04:48:26;;;;;;;3.90;3.05;;;19.80;74.40;;;;;;5007105;28;20033;-90
2021/07/19 04:50:52;;;;;;;4.10;2.80;;;19.80;73.50;;;;;;5010513;28;20022;-89
2021/07/19 04:53:18;;;;;;;3.92;3.10;;;19.80;73.70;;;;;;5011013;28;20044;-90
2021/07/19 04:55:48;;;;;;;3.92;3.03;;;19.80;73.10;;;;;;5008794;28;20030;-88
2021/07/19 04:58:16;;;;;;;3.85;3.00;;;19.80;73.50;;;;;;5009898;28;20022;-88
2021/07/19 05:00:47;;;;;;;4.32;3.00;;;19.80;73.20;;;;;;5009415;28;20022;-88
2021/07/19 05:03:14;;;;;;;4.13;2.90;;;19.80;73.80;;;;;;5010000;28;20046;-88
2021/07/19 05:05:41;;;;;;;3.58;2.95;;;19.90;73.30;;;;;;5008298;28;20053;-88
2021/07/19 05:08:07;;;;;;;5.55;3.00;;;19.90;73.00;;;;;;5002788;28;20038;-85
2021/07/19 05:10:34;;;;;;;5.28;3.10;;;19.90;73.00;;;;;;5009094;28;20021;-85
2021/07/19 05:13:00;;;;;;;5.20;3.35;;;20.00;72.70;;;;;;5012579;28;20493;-86
2021/07/19 05:15:26;;;;;;;6.40;3.22;;;20.00;73.40;;;;;;5009910;28;20026;-85
2021/07/19 05:17:53;;;;;;;3.92;2.97;;;20.10;73.30;;;;;;5009267;28;20034;-85
2021/07/19 05:20:21;;;;;;;3.70;3.03;;;20.10;72.70;;;;;;5009899;28;20018;-85
2021/07/19 05:22:48;;;;;;;5.45;2.95;;;20.20;72.70;;;;;;5008893;28;20046;-86
2021/07/19 05:25:22;;;;;;;4.55;3.20;;;20.20;73.70;;;;;;5010788;28;20378;-89
2021/07/19 05:28:08;;;;;;;4.55;3.28;;;20.20;72.60;;;;;;5011242;28;20026;-89
2021/07/19 05:30:38;;;;;;;5.07;3.20;;;20.30;72.40;;;;;;5011176;28;20058;-90
2021/07/19 05:33:04;;;;;;;4.50;3.17;;;20.30;72.50;;;;;;5010026;28;20030;-90
2021/07/19 05:35:30;;;;;;;4.97;3.03;;;20.40;73.30;;;;;;5009077;28;20034;-89
2021/07/19 05:37:55;;;;;;;3.10;2.72;;;20.40;73.00;;;;;;5010673;28;20105;-90
2021/07/19 05:40:21;;;;;;;4.00;3.20;;;20.50;72.70;;;;;;5009764;28;20507;-89
2021/07/19 05:42:47;;;;;;;7.57;3.72;;;20.60;73.20;;;;;;5010703;28;20037;-86
2021/07/19 05:45:14;;;;;;;3.33;2.95;;;20.60;72.70;;;;;;5007553;28;20018;-87
2021/07/19 05:47:40;;;;;;;3.25;2.72;;;20.70;72.70;;;;;;5007900;28;20041;-89
2021/07/19 05:50:07;;;;;;;6.30;3.17;;;20.70;72.90;;;;;;5007190;28;20488;-89
2021/07/19 05:52:34;;;;;;;5.20;2.92;;;20.80;72.20;;;;;;5007411;28;20049;-89
2021/07/19 05:55:00;;;;;;;5.40;3.13;;;20.80;73.10;;;;;;5011624;28;20033;-89
2021/07/19 05:57:27;;;;;;;3.65;3.03;;;20.90;72.60;;;;;;5008220;28;20068;-85
2021/07/19 05:59:56;;;;;;;5.20;3.20;;;20.90;72.70;;;;;;5005490;28;20471;-86
2021/07/19 06:02:23;;;;;;;4.10;3.00;;;21.00;72.20;;;;;;4997640;28;20073;-86
2021/07/19 06:04:48;;;;;;;3.38;2.95;;;21.00;72.70;;;;;;4991905;28;20022;-86
2021/07/19 06:07:14;;;;;;;4.13;2.70;;;21.10;72.80;;;;;;4990424;28;20095;-86
2021/07/19 06:09:40;;;;;;;5.72;2.72;;;21.10;73.00;;;;;;4988958;28;20058;-85
2021/07/19 06:12:05;;;;;;;3.60;2.80;;;21.10;71.90;;;;;;4993396;28;20077;-87
2021/07/19 06:14:31;;;;;;;3.53;3.00;;;21.20;72.20;;;;;;4994298;28;20030;-87
2021/07/19 06:16:57;;;;;;;3.03;2.67;;;21.30;72.20;;;;;;4992394;28;20394;-87
2021/07/19 06:19:22;;;;;;;3.83;2.83;;;21.30;72.20;;;;;;5005719;28;20057;-86
2021/07/19 06:21:48;;;;;;;4.18;2.83;;;21.40;71.90;;;;;;5008324;28;20512;-84
2021/07/19 06:24:14;;;;;;;5.78;2.72;;;21.40;71.30;;;;;;5009771;28;20048;-89
2021/07/19 06:26:39;;;;;;;4.78;2.95;;;21.40;71.60;;;;;;5008132;28;20513;-68
2021/07/19 06:29:05;;;;;;;4.65;2.45;;;21.50;74.50;;;;;;5004396;28;20046;-69
2021/07/19 06:31:32;;;;;;;6.03;3.08;;;21.60;72.20;;;;;;5001212;28;20109;-68
2021/07/19 06:33:57;;;;;;;3.75;2.67;;;21.70;72.10;;;;;;4996776;28;20054;-73
2021/07/19 06:36:23;;;;;;;6.68;3.05;;;21.80;73.00;;;;;;5008915;28;20065;-80
2021/07/19 06:38:49;;;;;;;3.85;2.65;;;21.80;71.60;;;;;;5006276;28;20653;-78
2021/07/19 06:41:15;;;;;;;3.20;2.60;;;21.80;71.40;;;;;;5007657;28;20064;-79
2021/07/19 06:43:40;;;;;;;3.42;2.55;;;21.80;71.30;;;;;;5006569;28;20038;-76
2021/07/19 06:46:06;;;;;;;3.10;2.60;;;21.80;71.70;;;;;;5009670;28;20556;-77
2021/07/19 06:48:33;;;;;;;4.00;2.75;;;21.80;71.60;;;;;;5008752;28;20037;-78
2021/07/19 06:51:00;;;;;;;3.13;2.78;;;21.90;71.80;;;;;;5007943;28;20045;-75
2021/07/19 06:53:26;;;;;;;4.20;2.95;;;21.90;71.20;;;;;;5007763;28;20045;-79
2021/07/19 06:55:52;;;;;;;3.92;2.70;;;22.00;71.50;;;;;;5009651;28;20495;-80
2021/07/19 06:58:17;;;;;;;4.32;3.10;;;22.00;71.20;;;;;;4997502;28;20041;-78
2021/07/19 07:00:43;;;;;;;4.25;2.95;;;22.00;70.90;;;;;;5020459;28;20033;-78
2021/07/19 07:03:08;;;;;;;4.65;2.83;;;22.10;71.40;;;;;;5021768;28;20547;-79
2021/07/19 07:05:34;;;;;;;2.65;2.40;;;22.10;70.60;;;;;;5005091;28;20022;-79
2021/07/19 07:08:00;;;;;;;3.30;2.72;;;22.20;71.30;;;;;;5016012;28;20123;-78
2021/07/19 07:10:25;;;;;;;3.67;3.13;;;22.20;71.00;;;;;;4998771;28;20148;-78
2021/07/19 07:12:51;;;;;;;3.97;3.20;;;22.20;70.90;;;;;;4999471;28;20019;-76
2021/07/19 07:15:17;;;;;;;2.63;2.42;;;22.20;71.20;;;;;;5005461;28;20036;-78
2021/07/19 07:17:42;;;;;;;3.67;2.72;;;22.30;71.00;;;;;;5006358;28;20411;-78
2021/07/19 07:20:12;;;;;;;3.75;2.80;;;22.30;70.80;;;;;;5001214;28;20065;-78
2021/07/19 07:22:39;;;;;;;3.30;2.90;;;22.40;70.80;;;;;;5010853;28;20062;-79
2021/07/19 07:25:05;;;;;;;3.47;2.90;;;22.40;70.70;;;;;;4995702;28;20026;-79
2021/07/19 07:27:31;;;;;;;3.08;2.60;;;22.50;70.00;;;;;;4999030;28;20383;-78
2021/07/19 07:29:57;;;;;;;3.80;2.72;;;22.60;70.20;;;;;;4999295;28;20046;-79
2021/07/19 07:32:23;;;;;;;3.63;2.80;;;22.60;69.50;;;;;;4999605;28;20060;-78
2021/07/19 07:34:48;;;;;;;4.15;2.95;;;22.70;69.90;;;;;;4997836;28;20033;-78
2021/07/19 07:37:14;;;;;;;4.70;3.00;;;22.80;70.00;;;;;;5011474;28;20080;-77
2021/07/19 07:39:41;;;;;;;4.20;2.97;;;22.80;69.50;;;;;;5013543;28;20017;-78
2021/07/19 07:42:07;;;;;;;4.03;3.25;;;22.80;69.70;;;;;;5012919;28;20124;-78
2021/07/19 07:44:33;;;;;;;4.35;2.95;;;22.90;69.20;;;;;;5012576;28;20468;-79
2021/07/19 07:46:58;;;;;;;5.20;2.97;;;22.90;69.30;;;;;;5012259;28;20542;-79
2021/07/19 07:49:26;;;;;;;4.03;3.00;;;23.00;69.50;;;;;;5011025;28;20026;-79
2021/07/19 07:51:52;;;;;;;3.92;3.08;;;23.00;68.90;;;;;;5008357;28;20037;-79
2021/07/19 07:54:20;;;;;;;3.28;2.90;;;23.10;69.20;;;;;;5006729;28;20026;-80
2021/07/19 07:56:46;;;;;;;4.35;2.97;;;23.10;68.90;;;;;;5012625;28;20026;-77
2021/07/19 07:59:12;;;;;;;4.90;3.35;;;23.20;68.30;;;;;;5007965;28;20033;-78
2021/07/19 08:01:38;;;;;;;5.10;3.20;;;23.20;68.30;;;;;;5005505;28;20026;-79
2021/07/19 08:04:04;;;;;;;4.60;2.88;;;23.30;68.30;;;;;;4995414;28;20117;-79
2021/07/19 08:06:29;;;;;;;4.65;2.92;;;23.30;67.90;;;;;;5003054;28;20053;-79
2021/07/19 08:08:55;;;;;;;5.32;3.35;;;23.40;68.00;;;;;;5008243;28;20034;-79
2021/07/19 08:11:21;;;;;;;4.18;3.03;;;23.40;67.50;;;;;;5009553;28;20038;-79
2021/07/19 08:13:46;;;;;;;3.28;2.97;;;23.50;67.70;;;;;;5012276;28;20034;-79
2021/07/19 08:16:12;;;;;;;4.57;3.08;;;23.50;67.80;;;;;;5011967;28;20030;-75
2021/07/19 08:18:38;;;;;;;4.68;2.92;;;23.60;67.70;;;;;;5013660;28;20120;-76
2021/07/19 08:21:04;;;;;;;5.95;3.22;;;23.60;67.40;;;;;;5011912;28;20064;-76
2021/07/19 08:23:30;;;;;;;5.03;3.42;;;23.70;67.40;;;;;;5011818;28;20040;-78
2021/07/19 08:25:55;;;;;;;3.47;3.10;;;23.70;67.10;;;;;;5011932;28;20413;-78
2021/07/19 08:28:21;;;;;;;5.38;3.08;;;23.80;67.20;;;;;;5010579;28;20664;-79
2021/07/19 08:30:47;;;;;;;4.15;3.40;;;23.80;66.80;;;;;;5013384;28;20042;-78
2021/07/19 08:33:12;;;;;;;4.57;3.00;;;23.90;66.50;;;;;;5000607;28;20053;-78
2021/07/19 08:35:39;;;;;;;3.97;3.05;;;23.90;66.70;;;;;;4998198;28;20022;-78
2021/07/19 08:38:06;;;;;;;4.32;3.50;;;24.00;67.70;;;;;;4996657;28;20033;-79
2021/07/19 08:40:32;;;;;;;4.50;3.35;;;24.00;66.50;;;;;;5007049;28;20019;-80
2021/07/19 08:42:59;;;;;;;4.55;3.17;;;24.10;66.20;;;;;;4996761;28;20035;-78
2021/07/19 08:45:24;;;;;;;4.05;3.22;;;24.10;65.00;;;;;;4997993;28;20018;-78
2021/07/19 08:47:52;;;;;;;4.10;3.38;;;24.10;65.00;;;;;;5007794;28;20030;-78
2021/07/19 08:50:20;;;;;;;4.63;3.42;;;24.10;65.20;;;;;;5011501;28;20030;-79
2021/07/19 08:52:53;;;;;;;4.15;3.22;;;24.20;65.00;;;;;;5011007;28;20405;-79
2021/07/19 08:55:20;;;;;;;5.05;3.35;;;24.20;65.40;;;;;;5011401;28;20029;-79
2021/07/19 08:57:49;;;;;;;7.32;3.72;;;24.30;64.90;;;;;;5011470;28;20030;-78
2021/07/19 09:00:16;;;;;;;3.67;3.33;;;24.30;64.70;;;;;;5011253;28;20030;-78
2021/07/19 09:02:42;;;;;;;5.15;3.35;;;24.30;64.80;;;;;;5001412;28;20030;-78
2021/07/19 09:05:08;;;;;;;3.58;3.25;;;24.40;65.20;;;;;;4999064;28;20057;-77
2021/07/19 09:07:35;;;;;;;4.65;3.53;;;24.40;64.10;;;;;;5014505;28;20041;-77
2021/07/19 09:10:01;;;;;;;3.88;3.20;;;24.50;63.70;;;;;;4996296;28;20033;-77
2021/07/19 09:12:35;;;;;;;4.55;3.85;;;24.50;63.40;;;;;;5009839;28;20060;-75
2021/07/19 09:15:01;;;;;;;3.33;2.90;;;24.60;63.50;;;;;;5010951;28;20064;-76
2021/07/19 09:17:28;;;;;;;3.95;3.15;;;24.60;63.80;;;;;;5009459;28;20030;-84
2021/07/19 09:19:55;;;;;;;5.32;3.40;;;24.50;63.90;;;;;;5009691;28;20018;-85
2021/07/19 09:22:30;;;;;;;4.68;3.50;;;24.60;64.00;;;;;;5010421;28;20021;-81
2021/07/19 09:25:25;;;;;;;4.82;3.33;;;24.60;63.70;;;;;;5012920;28;20022;-74
2021/07/19 09:27:57;;;;;;;4.60;3.13;;;24.70;63.00;;;;;;5002869;28;20495;-75
2021/07/19 09:30:26;;;;;;;5.43;3.38;;;24.70;62.70;;;;;;4994182;28;20057;-75
2021/07/19 09:33:06;;;;;;;4.07;3.13;;;24.70;62.40;;;;;;4993052;28;20065;-75
2021/07/19 09:35:34;;;;;;;4.85;3.30;;;24.70;63.00;;;;;;4995835;28;20026;-75
2021/07/19 09:38:17;;;;;;;3.75;3.13;;;24.80;63.20;;;;;;4995450;28;20112;-75
2021/07/19 09:40:44;;;;;;;;;;;24.90;63.20;;;;;;5005378;28;20073;-74
2021/07/19 09:43:24;;;;;;;5.63;3.30;;;24.90;62.70;;;;;;4994110;28;20309;-75
2021/07/19 09:46:01;;;;;;;5.63;3.10;;;25.00;61.50;;;;;;5006359;28;20053;-75
2021/07/19 09:48:28;;;;;;;3.70;3.17;;;25.00;62.00;;;;;;4996184;28;20450;-75
2021/07/19 09:50:54;;;;;;;3.60;2.83;;;25.00;61.80;;;;;;4995828;28;20030;-75
2021/07/19 09:53:33;;;;;;;5.28;3.47;;;25.10;62.00;;;;;;4995845;28;20029;-75
2021/07/19 09:56:20;;;;;;;5.75;3.50;;;25.00;61.90;;;;;;5002565;28;20022;-75
2021/07/19 09:58:50;;;;;;;6.20;3.00;;;25.10;61.00;;;;;;5004848;28;20037;-75
2021/07/19 10:01:29;;;;;;;3.90;2.95;;;25.10;60.80;;;;;;4993567;28;20102;-75
2021/07/19 10:04:11;;;;;;;4.57;3.53;;;25.20;61.30;;;;;;4994979;28;20038;-75
2021/07/19 10:06:39;;;;;;;6.78;3.38;;;25.20;60.00;;;;;;4999868;28;20372;-85
2021/07/19 10:09:11;;;;;;;4.43;3.22;;;25.30;60.20;;;;;;5010184;28;20160;-86
2021/07/19 10:11:40;;;;;;;5.20;3.30;;;25.30;58.80;;;;;;5007988;28;20026;-84
2021/07/19 10:14:06;;;;;;;6.28;3.03;;;25.30;58.80;;;;;;4999872;28;20513;-79
2021/07/19 10:16:33;;;;;;;5.35;3.53;;;25.40;59.10;;;;;;4994089;28;20029;-84
2021/07/19 10:19:01;;;;;;;5.25;3.47;;;25.40;59.30;;;;;;5001957;28;20053;-85
2021/07/19 10:21:31;;;;;;;5.78;3.30;;;25.40;58.90;;;;;;5006785;28;20018;-82
2021/07/19 10:24:02;;;;;;;6.30;3.40;;;25.40;57.40;;;;;;4993651;28;20067;-86
2021/07/19 10:26:28;;;;;;;5.18;3.28;;;25.50;58.00;;;;;;4992698;28;20528;-80
2021/07/19 10:28:55;;;;;;;5.80;3.60;;;25.50;56.80;;;;;;5001001;28;20046;-83
2021/07/19 10:31:21;;;;;;;4.40;3.25;;;25.60;56.30;;;;;;5009965;28;20045;-83
2021/07/19 10:33:48;;;;;;;5.25;3.30;;;25.60;57.50;;;;;;4998301;28;20026;-72
2021/07/19 10:36:24;;;;;;;4.18;2.78;;;25.70;58.30;;;;;;5000076;28;20034;-74
2021/07/19 10:38:53;;;;;;;4.55;3.10;;;25.70;57.60;;;;;;5002908;28;20037;-73
2021/07/19 10:41:22;;;;;;;3.70;3.10;;;25.70;57.40;;;;;;4999740;28;20034;-73
2021/07/19 10:44:05;;;;;;;3.80;3.05;;;25.80;57.00;;;;;;5002376;28;20494;-76
2021/07/19 10:46:31;;;;;;;5.85;3.05;;;25.80;57.70;;;;;;4997321;28;20030;-73
2021/07/19 10:49:29;;;;;;;5.72;3.53;;;25.80;56.70;;;;;;5000301;28;20089;-73
2021/07/19 10:51:55;;;;;;;3.92;3.00;;;25.90;57.10;;;;;;5006294;28;20034;-73
2021/07/19 10:54:23;;;;;;;3.92;2.70;;;26.00;55.60;;;;;;5006367;28;20073;-73
2021/07/19 10:56:53;;;;;;;4.35;3.00;;;26.00;56.90;;;;;;5005157;28;20014;-74
2021/07/19 10:59:30;;;;;;;4.35;3.10;;;26.00;56.30;;;;;;5009024;28;20034;-75
2021/07/19 11:01:57;;;;;;;4.30;2.90;;;26.00;55.60;;;;;;5008739;28;20018;-74
2021/07/19 11:04:24;;;;;;;4.05;2.75;;;26.00;54.60;;;;;;5010633;28;20092;-74
2021/07/19 11:06:58;;;;;;;5.78;2.95;;;26.00;55.60;;;;;;5004938;28;20033;-75
2021/07/19 11:09:38;;;;;;;4.43;2.70;;;26.10;54.40;;;;;;5007717;28;20471;-75
2021/07/19 11:12:13;;;;;;;4.38;2.40;;;26.30;54.20;;;;;;5003229;28;20026;-75
2021/07/19 11:14:52;;;;;;;5.75;2.95;;;26.30;54.10;;;;;;5002075;28;20025;-73
2021/07/19 11:17:20;;;;;;;4.25;2.70;;;26.30;54.20;;;;;;5008249;28;20058;-75
2021/07/19 11:19:48;;;;;;;3.78;3.10;;;26.40;54.70;;;;;;5010431;28;20079;-75
2021/07/19 11:22:25;;;;;;;3.47;2.75;;;26.40;53.60;;;;;;5003039;28;20038;-75
2021/07/19 11:24:53;;;;;;;4.85;2.83;;;26.40;53.50;;;;;;4996909;28;20057;-75
2021/07/19 11:27:31;;;;;;;6.05;2.90;;;26.50;53.80;;;;;;4999249;28;20073;-74
2021/07/19 11:30:22;;;;;;;3.58;2.47;;;26.60;53.00;;;;;;5001386;28;20046;-74
2021/07/19 11:32:49;;;;;;;4.30;2.92;;;26.60;53.30;;;;;;5003365;28;20038;-76
2021/07/19 11:35:19;;;;;;;4.32;3.08;;;26.60;53.30;;;;;;5005838;28;20046;-76
2021/07/19 11:37:47;;;;;;;5.07;2.85;;;26.70;54.30;;;;;;5007760;28;20026;-76
2021/07/19 11:40:37;;;;;;;4.43;2.85;;;26.70;54.50;;;;;;5010299;28;20566;-76
2021/07/19 11:43:16;;;;;;;4.35;2.90;;;26.80;54.50;;;;;;4998530;28;20049;-75
2021/07/19 11:45:45;;;;;;;3.78;2.80;;;26.70;52.90;;;;;;4996363;28;20034;-74
2021/07/19 11:48:10;;;;;;;5.30;2.60;;;26.80;53.00;;;;;;5000710;28;20030;-75
2021/07/19 11:50:36;;;;;;;6.10;2.80;;;26.80;51.60;;;;;;5002356;28;20384;-74
2021/07/19 11:53:02;;;;;;;4.47;2.85;;;26.80;51.20;;;;;;5008400;28;20108;-75
2021/07/19 11:55:28;;;;;;;4.97;2.88;;;26.90;51.40;;;;;;5008128;28;20889;-76
2021/07/19 11:58:01;;;;;;;4.40;3.00;;;26.90;50.20;;;;;;4996577;28;20026;-75
2021/07/19 12:00:36;;;;;;;5.03;2.65;;;27.00;51.80;;;;;;5006995;28;20027;-75
2021/07/19 12:03:05;;;;;;;4.05;2.70;;;27.00;50.90;;;;;;5001071;28;20034;-75
2021/07/19 12:05:33;;;;;;;4.13;3.17;;;27.00;51.60;;;;;;5006806;28;20032;-75
2021/07/19 12:07:59;;;;;;;3.67;2.75;;;27.10;51.20;;;;;;5016998;28;20022;-75
2021/07/19 12:10:25;;;;;;;2.80;2.53;;;27.10;50.00;;;;;;4994101;28;20038;-74
2021/07/19 12:12:51;;;;;;;5.18;2.53;;;27.20;50.60;;;;;;5013277;28;20049;-74
2021/07/19 12:15:17;;;;;;;5.20;3.08;;;27.20;50.20;;;;;;5009261;28;20030;-75
2021/07/19 12:17:43;;;;;;;4.22;2.67;;;27.20;49.30;;;;;;5012134;28;20026;-75
2021/07/19 12:20:12;;;;;;;3.72;2.58;;;27.20;50.00;;;;;;5010504;28;20026;-75
2021/07/19 12:22:38;;;;;;;4.97;3.00;;;27.30;50.70;;;;;;5011716;28;20038;-74
2021/07/19 12:25:05;;;;;;;3.67;2.58;;;27.40;50.90;;;;;;5012779;28;20091;-74
2021/07/19 12:27:31;;;;;;;4.78;3.30;;;27.30;51.30;;;;;;5011184;28;20109;-74
2021/07/19 12:29:57;;;;;;;5.03;2.90;;;27.40;50.30;;;;;;5011664;28;20120;-74
2021/07/19 12:32:22;;;;;;;5.15;2.83;;;27.50;49.20;;;;;;5007896;28;20390;-73
2021/07/19 12:34:48;;;;;;;3.15;2.85;;;27.50;48.70;;;;;;4996099;28;20033;-73
2021/07/19 12:37:16;;;;;;;4.47;2.80;;;27.50;48.20;;;;;;4994719;28;20030;-74
2021/07/19 12:39:46;;;;;;;4.80;2.60;;;27.50;49.50;;;;;;4997470;28;20121;-73
2021/07/19 12:42:14;;;;;;;4.68;2.80;;;27.40;50.40;;;;;;5004850;28;20033;-73
2021/07/19 12:44:43;;;;;;;4.10;2.55;;;27.40;50.90;;;;;;5004202;28;20121;-74
2021/07/19 12:47:09;;;;;;;5.20;2.90;;;27.40;50.60;;;;;;4996017;28;20022;-74
2021/07/19 12:49:37;;;;;;;3.47;2.75;;;27.60;47.00;;;;;;4996776;28;20441;-73
2021/07/19 12:52:18;;;;;;;3.65;2.63;;;27.60;47.20;;;;;;4994372;28;20092;-74
2021/07/19 12:55:20;;;;;;;5.60;2.72;;;27.70;46.10;;;;;;4995298;28;20526;-74